Terminal Aerodrome Forecast
Issued by NWS Sterling, VA

Current Version | Previous Version | Graphics & Text | Print | Product List | Glossary Off
Versions: 1 2 3 4 5 6 7 8 9 10 11 12 13 14 15 16 17 18 19 20 21

000
FTUS41 KLWX 010208 AAD
TAFMRB
TAF AMD
KMRB 010208Z 0102/0124 14007KT P6SM VCSH BKN060
      TEMPO 0102/0103 6SM -SHRA SCT030 BKN070
     FM010600 VRB03KT P6SM SCT080
     FM011400 26008KT P6SM SCT050=

USA.gov is the U.S. government's official web portal to all federal, state and local government web resources and services.